Time,TemperatureF,DewpointF,PressureIn,WindDirection,WindDirectionDegrees,WindSpeedMPH,WindSpeedGustMPH,Humidity,HourlyPrecipIn,Conditions,Clouds,dailyrainin,SoftwareType,DateUTC
2014-01-29 00:22:00,18.0,15.0,30.14,North,0,0.0,2.0,88,0.00,,,0.00,,2014-01-29 05:22:00,
2014-01-29 00:53:00,18.0,15.0,30.14,North,0,0.0,0.0,87,0.00,,,0.00,,2014-01-29 05:53:00,
2014-01-29 01:23:00,18.0,15.0,30.12,North,0,0.0,4.0,87,0.00,,,0.00,,2014-01-29 06:23:00,
2014-01-29 01:52:00,18.0,15.0,30.12,North,0,0.0,1.0,87,0.00,,,0.00,,2014-01-29 06:52:00,
2014-01-29 02:22:00,18.0,14.0,30.11,North,0,0.0,1.0,85,0.00,,,0.00,,2014-01-29 07:22:00,
2014-01-29 02:52:00,18.0,14.0,30.11,NW,309,1.0,5.0,85,0.00,,,0.00,,2014-01-29 07:52:00,
2014-01-29 03:22:00,18.0,14.0,30.14,North,0,0.0,7.0,83,0.00,,,0.00,,2014-01-29 08:22:00,
2014-01-29 03:32:00,18.0,14.0,30.14,North,0,0.0,7.0,83,0.00,,,0.00,,2014-01-29 08:32:00,
2014-01-29 03:52:00,18.0,14.0,30.13,North,0,0.0,0.0,83,0.00,,,0.00,,2014-01-29 08:52:00,
2014-01-29 04:22:00,18.0,14.0,30.13,North,0,0.0,0.0,83,0.00,,,0.00,,2014-01-29 09:22:00,
2014-01-29 04:33:00,18.0,14.0,30.13,North,0,0.0,0.0,83,0.00,,,0.00,,2014-01-29 09:33:00,
2014-01-29 04:53:00,18.0,14.0,30.14,North,0,0.0,2.0,83,0.00,,,0.00,,2014-01-29 09:53:00,
2014-01-29 05:22:00,18.0,13.0,30.14,North,0,0.0,2.0,81,0.00,,,0.00,,2014-01-29 10:22:00,
2014-01-29 05:33:00,18.0,13.0,30.14,North,0,0.0,2.0,81,0.00,,,0.00,,2014-01-29 10:33:00,
2014-01-29 05:53:00,18.0,13.0,30.15,North,0,0.0,0.0,81,0.00,,,0.00,,2014-01-29 10:53:00,
2014-01-29 06:22:00,18.0,13.0,30.17,North,0,0.0,2.0,82,0.00,,,0.00,,2014-01-29 11:22:00,
2014-01-29 06:53:00,18.0,13.0,30.17,North,0,0.0,0.0,82,0.00,,,0.00,,2014-01-29 11:53:00,
2014-01-29 07:22:00,18.0,13.0,30.18,North,0,0.0,0.0,82,0.00,,,0.00,,2014-01-29 12:22:00,
2014-01-29 07:52:00,17.0,13.0,30.17,North,0,0.0,4.0,83,0.00,,,0.00,,2014-01-29 12:52:00,
2014-01-29 08:22:00,17.0,13.0,30.19,North,0,0.0,1.0,83,0.00,,,0.00,,2014-01-29 13:22:00,
2014-01-29 08:52:00,18.0,13.0,30.20,North,0,0.0,3.0,82,0.00,,,0.00,,2014-01-29 13:52:00,
2014-01-29 09:22:00,19.0,14.0,30.23,North,0,0.0,5.0,79,0.00,,,0.00,,2014-01-29 14:22:00,
2014-01-29 09:52:00,19.0,13.0,30.25,North,0,0.0,5.0,78,0.00,,,0.00,,2014-01-29 14:52:00,
2014-01-29 10:22:00,20.0,13.0,30.26,NW,310,2.0,7.0,75,0.00,,,0.00,,2014-01-29 15:22:00,
2014-01-29 10:53:00,21.0,14.0,30.26,NNW,344,1.0,6.0,73,0.00,,,0.00,,2014-01-29 15:53:00,
2014-01-29 11:23:00,22.0,13.0,30.27,NNW,336,1.0,3.0,67,0.00,,,0.00,,2014-01-29 16:23:00,
2014-01-29 11:53:00,24.0,14.0,30.27,North,0,0.0,2.0,65,0.00,,,0.00,,2014-01-29 16:53:00,
2014-01-29 12:22:00,25.0,13.0,30.26,NNW,343,1.0,7.0,60,0.00,,,0.00,,2014-01-29 17:22:00,
2014-01-29 12:42:00,25.0,12.0,30.25,North,0,0.0,5.0,58,0.00,,,0.00,,2014-01-29 17:42:00,
2014-01-29 12:52:00,25.0,12.0,30.24,North,0,0.0,4.0,56,0.00,,,0.00,,2014-01-29 17:52:00,
2014-01-29 13:22:00,27.0,10.0,30.23,NW,314,1.0,9.0,49,0.00,,,0.00,,2014-01-29 18:22:00,
2014-01-29 13:53:00,28.0,8.0,30.23,NW,319,1.0,7.0,43,0.02,,,0.02,,2014-01-29 18:53:00,
2014-01-29 14:22:00,28.0,7.0,30.22,NW,315,1.0,4.0,40,0.05,,,0.05,,2014-01-29 19:22:00,
2014-01-29 14:52:00,28.0,7.0,30.22,North,0,0.0,4.0,40,0.04,,,0.06,,2014-01-29 19:52:00,
2014-01-29 15:22:00,28.0,6.0,30.22,North,0,0.0,0.0,38,0.02,,,0.07,,2014-01-29 20:22:00,
2014-01-29 15:53:00,28.0,6.0,30.22,North,0,0.0,3.0,38,0.01,,,0.07,,2014-01-29 20:53:00,
2014-01-29 16:22:00,28.0,6.0,30.23,North,0,0.0,0.0,38,0.01,,,0.08,,2014-01-29 21:22:00,
2014-01-29 16:53:00,27.0,4.0,30.24,North,0,0.0,3.0,37,0.01,,,0.08,,2014-01-29 21:53:00,
2014-01-29 17:23:00,26.0,3.0,30.24,North,0,0.0,3.0,37,0.00,,,0.08,,2014-01-29 22:23:00,
2014-01-29 17:53:00,26.0,3.0,30.25,North,0,0.0,0.0,37,0.00,,,0.08,,2014-01-29 22:53:00,
2014-01-29 18:22:00,25.0,4.0,30.25,North,0,0.0,0.0,39,0.00,,,0.08,,2014-01-29 23:22:00,
2014-01-29 18:52:00,24.0,6.0,30.27,North,0,0.0,0.0,46,0.00,,,0.08,,2014-01-29 23:52:00,
2014-01-29 19:22:00,23.0,7.0,30.27,North,0,0.0,0.0,49,0.00,,,0.08,,2014-01-30 00:22:00,
2014-01-29 19:52:00,23.0,11.0,30.28,North,0,0.0,0.0,59,0.00,,,0.08,,2014-01-30 00:52:00,
2014-01-29 20:22:00,22.0,8.0,30.27,North,0,0.0,0.0,55,0.00,,,0.08,,2014-01-30 01:22:00,
2014-01-29 20:52:00,21.0,9.0,30.27,North,0,0.0,0.0,58,0.00,,,0.08,,2014-01-30 01:52:00,
2014-01-29 21:22:00,20.0,9.0,30.28,North,0,0.0,0.0,61,0.00,,,0.08,,2014-01-30 02:22:00,
2014-01-29 22:22:00,18.0,8.0,30.28,North,0,0.0,0.0,64,0.00,,,0.08,,2014-01-30 03:22:00,
2014-01-29 22:53:00,16.0,8.0,30.29,North,0,0.0,0.0,70,0.00,,,0.08,,2014-01-30 03:53:00,
2014-01-29 23:23:00,14.0,8.0,30.30,North,0,0.0,0.0,76,0.00,,,0.08,,2014-01-30 04:23:00,
2014-01-29 23:53:00,13.0,8.0,30.30,North,0,0.0,0.0,79,0.00,,,0.08,,2014-01-30 04:53:00,